Time;durP1;ratioP1;P1;durP2;ratioP2;P2;SDS_P1;SDS_P2;PMS_P1;PMS_P2;Temp;Humidity;BMP_temperature;BMP_pressure;BME280_temperature;BME280_humidity;BME280_pressure;Samples;Min_cycle;Max_cycle;Signal;HPM_P1;HPM_P2
2022/03/29 00:00:33;;;;;;;29.05;15.80;;;3.60;99.90;;;;;;5070880;28;20032;-57
2022/03/29 00:02:59;;;;;;;25.08;16.45;;;3.60;99.90;;;;;;5071233;28;20013;-57
2022/03/29 00:05:26;;;;;;;27.27;15.93;;;3.50;99.90;;;;;;5070895;28;20486;-57
2022/03/29 00:07:52;;;;;;;28.52;16.63;;;3.50;99.90;;;;;;5071251;28;20033;-54
2022/03/29 00:10:18;;;;;;;27.58;17.73;;;3.40;99.90;;;;;;5070589;28;20019;-55
2022/03/29 00:16:05;;;;;;;26.35;17.52;;;3.30;99.90;;;;;;5070844;28;20074;-55
2022/03/29 00:18:31;;;;;;;31.58;17.17;;;3.30;99.90;;;;;;5071016;28;20048;-57
2022/03/29 00:20:57;;;;;;;22.17;16.10;;;3.30;99.90;;;;;;5070951;28;20079;-58
2022/03/29 00:23:22;;;;;;;26.00;16.35;;;3.30;99.90;;;;;;5070719;28;20031;-56
2022/03/29 00:25:48;;;;;;;25.45;16.05;;;3.30;99.90;;;;;;5071104;28;20111;-57
2022/03/29 00:28:14;;;;;;;28.92;16.20;;;3.20;99.90;;;;;;5073761;28;20071;-59
2022/03/29 00:30:40;;;;;;;27.17;17.27;;;3.20;99.90;;;;;;5073367;28;20024;-57
2022/03/29 00:33:06;;;;;;;31.80;17.35;;;3.10;99.90;;;;;;5073345;28;20025;-57
2022/03/29 00:35:31;;;;;;;23.67;15.02;;;3.10;99.90;;;;;;5072339;28;20073;-56
2022/03/29 00:37:57;;;;;;;27.10;16.02;;;3.10;99.90;;;;;;5074267;28;20024;-57
2022/03/29 00:40:23;;;;;;;28.98;17.65;;;3.10;99.90;;;;;;5073442;28;20024;-57
2022/03/29 00:42:49;;;;;;;26.27;16.83;;;3.10;99.90;;;;;;5074774;28;20032;-57
2022/03/29 00:45:15;;;;;;;26.42;17.33;;;3.10;99.90;;;;;;5074495;28;20028;-58
2022/03/29 00:47:41;;;;;;;25.58;16.95;;;3.10;99.90;;;;;;5074106;28;20024;-55
2022/03/29 00:50:08;;;;;;;27.70;16.83;;;3.20;99.90;;;;;;5073940;28;20418;-58
2022/03/29 00:52:34;;;;;;;32.08;17.17;;;3.10;99.90;;;;;;5074058;28;20024;-58
2022/03/29 00:55:00;;;;;;;26.02;18.38;;;3.10;99.90;;;;;;5073800;28;20044;-58
2022/03/29 00:57:32;;;;;;;23.65;16.13;;;3.10;99.90;;;;;;5072507;28;20166;-56
2022/03/29 00:59:59;;;;;;;26.85;16.52;;;3.10;99.90;;;;;;5074382;28;20031;-58
2022/03/29 01:02:24;;;;;;;27.15;16.38;;;3.00;99.90;;;;;;5074475;28;20032;-57
2022/03/29 01:04:50;;;;;;;31.25;17.65;;;3.00;99.90;;;;;;5073764;28;20429;-58
2022/03/29 01:07:16;;;;;;;22.20;15.35;;;3.00;99.90;;;;;;5073516;28;20012;-58
2022/03/29 01:09:42;;;;;;;24.88;15.90;;;2.90;99.90;;;;;;5072376;28;20060;-58
2022/03/29 01:12:08;;;;;;;28.58;17.77;;;2.80;99.90;;;;;;5074193;28;20056;-57
2022/03/29 01:14:34;;;;;;;25.50;17.23;;;2.80;99.90;;;;;;5074104;28;20069;-57
2022/03/29 01:19:46;;;;;;;26.10;17.67;;;2.70;99.90;;;;;;5074100;28;20036;-57
2022/03/29 01:22:12;;;;;;;26.23;17.02;;;2.80;99.90;;;;;;5073814;28;20455;-58
2022/03/29 01:24:42;;;;;;;27.70;17.40;;;2.80;99.90;;;;;;5073250;28;20024;-54
2022/03/29 01:27:08;;;;;;;29.20;18.20;;;2.80;99.90;;;;;;5073444;28;20032;-57
2022/03/29 01:29:35;;;;;;;29.92;16.98;;;2.80;99.90;;;;;;5073765;28;20056;-56
2022/03/29 01:32:07;;;;;;;29.98;17.73;;;2.80;99.90;;;;;;5073423;28;20053;-58
2022/03/29 01:34:37;;;;;;;28.85;17.98;;;2.60;99.90;;;;;;5073237;28;20020;-56
2022/03/29 01:37:06;;;;;;;35.55;18.00;;;2.60;99.90;;;;;;5073231;28;20113;-56
2022/03/29 01:39:33;;;;;;;29.77;17.73;;;2.60;99.90;;;;;;5072918;28;20142;-57
2022/03/29 01:41:59;;;;;;;27.85;17.73;;;2.70;99.90;;;;;;5072353;28;20457;-56
2022/03/29 01:44:25;;;;;;;28.33;18.05;;;2.70;99.90;;;;;;5073657;28;20143;-58
2022/03/29 01:46:51;;;;;;;25.73;16.65;;;2.70;99.90;;;;;;5073082;28;20124;-55
2022/03/29 01:49:17;;;;;;;35.72;18.45;;;2.80;99.90;;;;;;5073748;28;20542;-57
2022/03/29 01:51:44;;;;;;;29.52;17.23;;;2.80;99.90;;;;;;5073413;28;20025;-56
2022/03/29 01:54:09;;;;;;;37.85;16.85;;;2.90;99.90;;;;;;5073611;28;20024;-57
2022/03/29 01:56:36;;;;;;;30.38;16.90;;;2.90;99.90;;;;;;5072319;28;20020;-56
2022/03/29 01:59:07;;;;;;;29.52;18.02;;;2.90;99.90;;;;;;5073101;28;20117;-54
2022/03/29 02:01:44;;;;;;;30.15;18.90;;;2.90;99.90;;;;;;5073332;28;20033;-59
2022/03/29 02:04:10;;;;;;;26.30;17.63;;;2.90;99.90;;;;;;5073128;28;20033;-55
2022/03/29 02:06:36;;;;;;;39.00;16.95;;;2.80;99.90;;;;;;5072683;28;20032;-54
2022/03/29 02:09:03;;;;;;;28.30;17.73;;;2.70;99.90;;;;;;5072819;28;20039;-59
2022/03/29 02:11:29;;;;;;;37.05;17.52;;;2.80;99.90;;;;;;5073069;28;20052;-55
2022/03/29 02:13:55;;;;;;;27.92;18.10;;;2.80;99.90;;;;;;5072298;28;20403;-56
2022/03/29 02:16:21;;;;;;;35.72;18.80;;;2.90;99.90;;;;;;5073034;28;20046;-59
2022/03/29 02:18:47;;;;;;;28.88;17.90;;;2.90;99.90;;;;;;5071607;28;20059;-58
2022/03/29 02:21:19;;;;;;;25.00;17.40;;;2.90;99.90;;;;;;5070990;28;20029;-57
2022/03/29 02:23:45;;;;;;;32.95;16.73;;;2.90;99.90;;;;;;5071803;28;20445;-59
2022/03/29 02:26:11;;;;;;;25.10;17.77;;;2.90;99.90;;;;;;5072454;28;20031;-57
2022/03/29 02:28:36;;;;;;;29.95;17.67;;;2.90;99.90;;;;;;5072607;28;20422;-54
2022/03/29 02:31:02;;;;;;;32.33;17.13;;;2.80;99.90;;;;;;5071880;28;20472;-55
2022/03/29 02:33:28;;;;;;;37.70;16.23;;;2.80;99.90;;;;;;5072266;28;20510;-58
2022/03/29 02:35:54;;;;;;;29.98;16.30;;;2.80;99.90;;;;;;5072359;28;20333;-57
2022/03/29 02:38:20;;;;;;;26.63;17.77;;;2.80;99.90;;;;;;5072373;28;20054;-58
2022/03/29 02:40:46;;;;;;;26.65;16.70;;;2.80;99.90;;;;;;5072609;28;20028;-57
2022/03/29 02:43:12;;;;;;;26.95;16.90;;;2.80;99.90;;;;;;5072460;28;20067;-58
2022/03/29 02:45:38;;;;;;;33.13;18.23;;;2.80;99.90;;;;;;5072046;28;20459;-58
2022/03/29 02:48:04;;;;;;;30.83;17.80;;;2.80;99.90;;;;;;5071983;28;20460;-57
2022/03/29 02:50:29;;;;;;;26.70;16.67;;;2.80;99.90;;;;;;5071658;28;20032;-56
2022/03/29 02:52:58;;;;;;;26.77;16.52;;;2.80;99.90;;;;;;5072217;28;20025;-58
2022/03/29 02:55:33;;;;;;;30.08;17.45;;;2.80;99.90;;;;;;5070980;28;20024;-58
2022/03/29 02:57:59;;;;;;;26.27;17.33;;;2.90;99.90;;;;;;5072175;28;20036;-58
2022/03/29 03:00:25;;;;;;;30.00;18.10;;;2.80;99.90;;;;;;5072179;28;20048;-57
2022/03/29 03:02:53;;;;;;;34.17;19.02;;;2.80;99.90;;;;;;5072181;28;20021;-59
2022/03/29 03:05:24;;;;;;;27.42;16.63;;;2.80;99.90;;;;;;5072392;28;20034;-55
2022/03/29 03:07:50;;;;;;;33.67;19.17;;;2.80;99.90;;;;;;5072243;28;20020;-57
2022/03/29 03:10:16;;;;;;;28.98;18.45;;;2.80;99.90;;;;;;5071513;28;20035;-57
2022/03/29 03:12:46;;;;;;;27.38;16.30;;;2.80;99.90;;;;;;5071423;28;20024;-59
2022/03/29 03:15:13;;;;;;;28.17;17.85;;;2.90;99.90;;;;;;5070999;28;20388;-57
2022/03/29 03:17:39;;;;;;;33.17;17.48;;;2.70;99.90;;;;;;5070947;28;20028;-55
2022/03/29 03:20:07;;;;;;;32.38;17.80;;;2.70;99.90;;;;;;5070782;28;20387;-55
2022/03/29 03:22:35;;;;;;;25.98;16.85;;;2.60;99.90;;;;;;5070190;28;20024;-57
2022/03/29 03:25:01;;;;;;;32.33;18.85;;;2.60;99.90;;;;;;5070901;28;20028;-57
2022/03/29 03:27:27;;;;;;;32.83;17.73;;;2.60;99.90;;;;;;5069493;28;20028;-58
2022/03/29 03:29:53;;;;;;;30.10;17.73;;;2.60;99.90;;;;;;5070553;28;20060;-56
2022/03/29 03:32:18;;;;;;;28.27;19.60;;;2.50;99.90;;;;;;5070883;28;20119;-57
2022/03/29 03:34:44;;;;;;;39.17;19.17;;;2.50;99.90;;;;;;5070278;28;20028;-56
2022/03/29 03:37:10;;;;;;;38.28;18.88;;;2.50;99.90;;;;;;5070994;28;20025;-58
2022/03/29 03:39:37;;;;;;;33.97;17.02;;;2.50;99.90;;;;;;5070893;28;20028;-57
2022/03/29 03:42:07;;;;;;;31.58;19.33;;;2.60;99.90;;;;;;5070721;28;20021;-55
2022/03/29 03:44:33;;;;;;;31.42;17.77;;;2.70;99.90;;;;;;5070669;28;20115;-58
2022/03/29 03:47:00;;;;;;;33.03;18.05;;;2.80;99.90;;;;;;5070247;28;20024;-58
2022/03/29 03:49:26;;;;;;;32.42;18.15;;;2.80;99.90;;;;;;5070596;28;20035;-58
2022/03/29 03:51:52;;;;;;;28.85;17.67;;;2.80;99.90;;;;;;5070633;28;20415;-57
2022/03/29 03:54:17;;;;;;;26.55;18.63;;;2.80;99.90;;;;;;5070671;28;20032;-58
2022/03/29 03:56:43;;;;;;;32.40;19.92;;;2.80;99.90;;;;;;5070659;28;20039;-59
2022/03/29 03:59:09;;;;;;;40.20;17.98;;;2.80;99.90;;;;;;5070367;28;20024;-56
2022/03/29 04:01:35;;;;;;;31.95;19.05;;;2.80;99.90;;;;;;5069355;28;20235;-56
2022/03/29 04:04:00;;;;;;;30.25;18.80;;;2.80;99.90;;;;;;5070395;28;20029;-59
2022/03/29 04:06:26;;;;;;;33.95;18.10;;;2.80;99.90;;;;;;5068985;28;20035;-58
2022/03/29 04:08:52;;;;;;;30.52;18.58;;;2.80;99.90;;;;;;5069594;28;20103;-57
2022/03/29 04:11:19;;;;;;;28.38;18.30;;;2.80;99.90;;;;;;5069778;28;20534;-57
2022/03/29 04:13:45;;;;;;;28.77;18.60;;;2.80;99.90;;;;;;5029037;28;1155309;-58
2022/03/29 04:16:10;;;;;;;42.05;20.33;;;2.80;99.90;;;;;;5071161;28;20032;-57
2022/03/29 04:18:36;;;;;;;33.08;20.98;;;2.90;99.90;;;;;;5071017;28;20039;-57
2022/03/29 04:21:02;;;;;;;32.72;19.63;;;2.80;99.90;;;;;;5071099;28;20077;-58
2022/03/29 04:23:28;;;;;;;33.97;20.70;;;2.80;99.90;;;;;;5071008;28;20025;-53
2022/03/29 04:25:54;;;;;;;35.03;21.65;;;2.80;99.90;;;;;;5070653;28;20029;-59
2022/03/29 04:28:20;;;;;;;31.40;20.80;;;2.80;99.90;;;;;;5071091;28;20380;-58
2022/03/29 04:30:46;;;;;;;39.15;21.42;;;2.90;99.90;;;;;;5070831;28;20113;-58
2022/03/29 04:33:11;;;;;;;35.45;21.10;;;2.90;99.90;;;;;;5070854;28;20436;-58
2022/03/29 04:35:37;;;;;;;33.50;19.95;;;2.80;99.90;;;;;;5070908;28;20040;-56
2022/03/29 04:38:03;;;;;;;31.67;20.10;;;2.80;99.90;;;;;;5070648;28;20059;-59
2022/03/29 04:40:28;;;;;;;27.50;18.23;;;2.80;99.90;;;;;;5070925;28;20020;-57
2022/03/29 04:42:54;;;;;;;29.60;18.90;;;2.80;99.90;;;;;;5070875;28;20086;-57
2022/03/29 04:45:20;;;;;;;40.30;19.80;;;2.70;99.90;;;;;;5071046;28;20535;-55
2022/03/29 04:47:47;;;;;;;34.58;21.65;;;2.70;99.90;;;;;;5070769;28;20107;-58
2022/03/29 04:50:14;;;;;;;45.40;21.00;;;2.70;99.90;;;;;;5071129;28;20035;-57
2022/03/29 04:52:44;;;;;;;31.67;21.20;;;2.70;99.90;;;;;;5070962;28;20024;-58
2022/03/29 04:55:10;;;;;;;33.50;22.05;;;2.60;99.90;;;;;;5069447;28;20047;-58
2022/03/29 04:57:36;;;;;;;35.03;20.52;;;2.70;99.90;;;;;;5070358;28;20024;-58
2022/03/29 05:00:04;;;;;;;37.35;20.67;;;2.70;99.90;;;;;;5070722;28;20021;-58
2022/03/29 05:02:30;;;;;;;34.97;19.77;;;2.70;99.90;;;;;;5070685;28;20043;-58
2022/03/29 05:04:56;;;;;;;35.33;19.30;;;2.60;99.90;;;;;;5070584;28;20056;-56
2022/03/29 05:07:23;;;;;;;36.58;21.02;;;2.60;99.90;;;;;;5069504;28;20023;-59
2022/03/29 05:09:50;;;;;;;33.10;20.15;;;2.60;99.90;;;;;;5069312;28;20028;-58
2022/03/29 05:12:16;;;;;;;42.33;20.60;;;2.60;99.90;;;;;;5070592;28;20027;-58
2022/03/29 05:14:43;;;;;;;38.13;22.60;;;2.60;99.90;;;;;;5072739;28;20075;-58
2022/03/29 05:17:08;;;;;;;34.05;21.08;;;2.70;99.90;;;;;;5074243;28;20052;-58
2022/03/29 05:19:34;;;;;;;44.20;22.25;;;2.80;99.90;;;;;;5074029;28;20052;-59
2022/03/29 05:22:00;;;;;;;43.78;20.65;;;2.80;99.90;;;;;;5073851;28;20038;-56
2022/03/29 05:24:26;;;;;;;31.38;20.92;;;2.90;99.90;;;;;;5072878;28;20104;-56
2022/03/29 05:26:51;;;;;;;33.17;21.88;;;3.00;99.90;;;;;;5072583;28;20071;-58
2022/03/29 05:29:21;;;;;;;29.58;19.40;;;3.00;99.90;;;;;;5072822;28;20028;-59
2022/03/29 05:31:47;;;;;;;38.17;22.27;;;3.20;99.90;;;;;;5072857;28;20027;-58
2022/03/29 05:34:15;;;;;;;37.75;21.88;;;3.20;99.90;;;;;;5073484;28;20672;-58
2022/03/29 05:36:44;;;;;;;37.17;21.75;;;3.30;99.90;;;;;;5073576;28;20025;-59
2022/03/29 05:39:10;;;;;;;37.33;20.52;;;3.40;99.90;;;;;;5073715;28;20029;-59
2022/03/29 05:41:36;;;;;;;36.83;20.33;;;3.50;99.90;;;;;;5073617;28;20029;-59
2022/03/29 05:44:02;;;;;;;43.13;20.63;;;3.60;99.90;;;;;;5073470;28;20061;-58
2022/03/29 05:49:12;;;;;;;33.75;22.00;;;3.70;99.90;;;;;;5073808;28;20174;-58
2022/03/29 05:51:37;;;;;;;45.05;26.02;;;3.80;99.90;;;;;;5073607;28;20107;-58
2022/03/29 05:54:04;;;;;;;48.80;22.98;;;3.80;99.90;;;;;;5073551;28;20039;-58
2022/03/29 05:56:30;;;;;;;42.58;22.15;;;3.90;99.90;;;;;;5073133;28;20028;-59
2022/03/29 05:58:56;;;;;;;35.53;21.60;;;4.10;99.90;;;;;;5072659;28;20024;-58
2022/03/29 06:01:22;;;;;;;41.88;21.65;;;4.10;99.90;;;;;;5061483;28;20040;-58
2022/03/29 06:03:48;;;;;;;39.75;20.67;;;4.20;99.90;;;;;;5062689;28;20029;-59
2022/03/29 06:06:14;;;;;;;37.67;22.77;;;4.30;99.90;;;;;;5062240;28;20412;-57
2022/03/29 06:08:41;;;;;;;44.42;25.80;;;4.50;99.90;;;;;;5062164;28;20028;-59
2022/03/29 06:11:07;;;;;;;35.33;24.17;;;4.70;99.90;;;;;;5062217;28;20174;-59
2022/03/29 06:13:33;;;;;;;46.78;23.13;;;4.80;99.90;;;;;;5056155;28;20068;-59
2022/03/29 06:15:59;;;;;;;61.55;22.75;;;5.10;99.90;;;;;;5042694;28;20029;-60
2022/03/29 06:18:24;;;;;;;50.10;23.73;;;5.20;99.90;;;;;;5042741;28;20023;-58
2022/03/29 06:20:50;;;;;;;44.63;23.35;;;5.40;99.90;;;;;;5040664;28;20033;-60
2022/03/29 06:23:16;;;;;;;47.63;26.02;;;5.70;99.90;;;;;;5040828;28;20036;-59
2022/03/29 06:25:43;;;;;;;73.95;36.80;;;5.70;99.90;;;;;;5039495;28;20044;-60
2022/03/29 06:28:10;;;;;;;81.60;42.92;;;5.80;99.90;;;;;;5040910;28;20068;-59
2022/03/29 06:30:39;;;;;;;69.50;38.50;;;6.00;99.90;;;;;;5060097;28;20024;-56
2022/03/29 06:33:05;;;;;;;62.90;37.47;;;6.10;99.90;;;;;;5041375;28;20029;-59
2022/03/29 06:35:31;;;;;;;46.55;28.27;;;6.20;99.90;;;;;;5041145;28;20031;-57
2022/03/29 06:37:58;;;;;;;41.67;25.27;;;6.40;99.90;;;;;;5060255;28;20372;-58
2022/03/29 06:40:27;;;;;;;41.92;25.73;;;6.60;99.90;;;;;;5060656;28;20028;-60
2022/03/29 06:42:55;;;;;;;53.38;31.70;;;6.70;99.90;;;;;;5069263;28;20027;-54
2022/03/29 06:45:20;;;;;;;61.17;31.92;;;7.00;99.90;;;;;;5072301;28;20029;-59
2022/03/29 06:47:47;;;;;;;45.63;27.50;;;7.10;99.90;;;;;;5072307;28;20496;-55
2022/03/29 06:50:13;;;;;;;37.30;25.23;;;7.30;99.90;;;;;;5072504;28;20085;-59
2022/03/29 06:52:42;;;;;;;34.03;23.15;;;7.40;99.90;;;;;;5072185;28;20416;-58
2022/03/29 06:55:10;;;;;;;44.50;24.83;;;7.70;99.90;;;;;;5072213;28;20070;-60
2022/03/29 06:57:36;;;;;;;40.58;21.33;;;7.90;99.90;;;;;;5072150;28;20021;-60
2022/03/29 07:00:05;;;;;;;31.63;20.10;;;8.10;99.90;;;;;;5072327;28;20078;-59
2022/03/29 07:02:31;;;;;;;26.95;19.88;;;8.40;99.90;;;;;;5072072;28;20420;-54
2022/03/29 07:04:57;;;;;;;30.30;19.35;;;8.70;99.90;;;;;;5072205;28;20056;-55
2022/03/29 07:07:22;;;;;;;32.20;19.08;;;9.00;99.90;;;;;;5071796;28;20031;-58
2022/03/29 07:12:45;;;;;;;29.92;17.90;;;9.30;99.90;;;;;;5071859;28;20028;-55
2022/03/29 07:15:10;;;;;;;29.10;18.00;;;9.60;99.90;;;;;;5071866;28;20036;-59
2022/03/29 07:17:36;;;;;;;29.08;17.92;;;10.00;99.90;;;;;;5071841;28;20199;-52
2022/03/29 07:20:02;;;;;;;25.33;18.13;;;10.10;99.90;;;;;;5071885;28;20043;-54
2022/03/29 07:22:27;;;;;;;36.03;19.60;;;10.40;99.90;;;;;;5070370;28;20089;-56
2022/03/29 07:24:53;;;;;;;24.38;17.10;;;10.60;99.90;;;;;;5071815;28;20064;-59
2022/03/29 07:27:19;;;;;;;27.42;16.65;;;10.90;99.90;;;;;;5071736;28;20020;-58
2022/03/29 07:29:45;;;;;;;30.77;16.05;;;11.10;98.70;;;;;;5071576;28;20027;-57
2022/03/29 07:32:10;;;;;;;27.63;16.60;;;11.20;97.70;;;;;;5071544;28;20017;-56
2022/03/29 07:34:36;;;;;;;26.27;16.15;;;11.20;97.20;;;;;;5071694;28;20032;-57
2022/03/29 07:37:03;;;;;;;27.45;17.98;;;11.50;96.30;;;;;;5071243;28;20033;-56
2022/03/29 07:39:29;;;;;;;29.70;16.55;;;11.50;94.80;;;;;;5070246;28;20028;-58
2022/03/29 07:41:58;;;;;;;29.80;17.42;;;11.40;94.20;;;;;;5071262;28;20090;-57
2022/03/29 07:44:24;;;;;;;27.73;15.45;;;11.60;94.10;;;;;;5070461;28;20024;-58
2022/03/29 07:46:50;;;;;;;23.52;15.10;;;11.70;94.10;;;;;;5069936;28;20040;-56
2022/03/29 07:49:16;;;;;;;27.55;15.40;;;12.10;93.90;;;;;;5070371;28;20401;-58
2022/03/29 07:51:42;;;;;;;27.13;16.15;;;12.40;93.30;;;;;;5070640;28;20036;-58
2022/03/29 07:54:07;;;;;;;23.02;15.70;;;12.60;92.90;;;;;;5070191;28;20074;-59
2022/03/29 07:56:33;;;;;;;28.83;16.90;;;12.70;92.90;;;;;;5071059;28;20071;-58
2022/03/29 07:58:59;;;;;;;25.38;17.27;;;12.90;93.70;;;;;;5069465;28;20142;-58
2022/03/29 08:01:25;;;;;;;23.35;14.30;;;12.80;92.10;;;;;;5071137;28;20044;-58
2022/03/29 08:03:51;;;;;;;26.48;17.92;;;12.80;91.00;;;;;;5070181;28;20028;-57
2022/03/29 08:06:17;;;;;;;38.63;16.45;;;12.90;91.50;;;;;;5070201;28;20048;-58
2022/03/29 08:08:43;;;;;;;28.55;14.85;;;13.10;90.40;;;;;;5069836;28;20029;-59
2022/03/29 08:11:09;;;;;;;30.58;14.85;;;13.20;89.90;;;;;;5070991;28;20095;-58
2022/03/29 08:13:35;;;;;;;21.55;14.50;;;13.40;88.80;;;;;;5070661;28;20041;-58
2022/03/29 08:16:04;;;;;;;22.25;13.82;;;13.80;88.00;;;;;;5071045;28;20100;-59
2022/03/29 08:18:31;;;;;;;25.02;14.90;;;14.00;84.70;;;;;;5070815;28;20021;-58
2022/03/29 08:20:57;;;;;;;22.15;14.60;;;13.80;85.10;;;;;;5070936;28;20027;-58
2022/03/29 08:23:24;;;;;;;21.60;12.45;;;13.90;84.20;;;;;;5071123;28;20069;-55
2022/03/29 08:25:50;;;;;;;20.40;13.63;;;14.40;83.70;;;;;;5070958;28;20023;-55
2022/03/29 08:28:16;;;;;;;20.23;14.18;;;14.60;82.60;;;;;;5070996;28;20044;-59
2022/03/29 08:30:43;;;;;;;26.02;13.63;;;14.70;80.50;;;;;;5071020;28;20404;-58
2022/03/29 08:33:09;;;;;;;21.05;14.10;;;14.80;81.80;;;;;;5060039;28;20104;-58
2022/03/29 08:35:39;;;;;;;17.27;12.65;;;15.10;79.30;;;;;;5059181;28;20101;-57
2022/03/29 08:38:05;;;;;;;22.25;13.63;;;15.30;76.50;;;;;;5060091;28;20055;-58
2022/03/29 08:40:31;;;;;;;26.50;15.38;;;15.50;76.70;;;;;;5060225;28;20040;-58
2022/03/29 08:43:00;;;;;;;26.90;13.77;;;15.50;74.10;;;;;;5059770;28;20025;-59
2022/03/29 08:45:31;;;;;;;21.88;12.80;;;15.30;72.00;;;;;;5040388;28;20031;-55
2022/03/29 08:48:00;;;;;;;38.30;18.58;;;15.40;69.30;;;;;;5060162;28;20033;-58
2022/03/29 08:50:29;;;;;;;27.90;16.80;;;15.30;68.40;;;;;;5063745;28;20038;-59
2022/03/29 08:52:55;;;;;;;30.02;17.75;;;15.50;69.20;;;;;;5063382;28;20138;-58
2022/03/29 08:55:22;;;;;;;32.00;19.15;;;15.50;69.70;;;;;;5062631;28;20087;-57
2022/03/29 08:57:51;;;;;;;37.72;18.08;;;15.70;69.40;;;;;;5063440;28;20467;-56
2022/03/29 09:00:17;;;;;;;22.42;13.85;;;16.10;69.20;;;;;;5062807;28;20460;-56
2022/03/29 09:02:42;;;;;;;22.00;14.30;;;15.80;67.60;;;;;;5063727;28;20060;-59
2022/03/29 09:05:09;;;;;;;24.77;14.00;;;16.00;69.40;;;;;;5061902;28;20068;-58
2022/03/29 09:07:52;;;;;;;22.42;13.35;;;16.50;69.90;;;;;;5051690;28;20479;-57
2022/03/29 09:10:20;;;;;;;30.80;14.60;;;16.80;66.30;;;;;;5048642;28;20102;-57
2022/03/29 09:12:45;;;;;;;23.95;14.43;;;17.00;67.10;;;;;;5043009;28;20603;-55
2022/03/29 09:15:12;;;;;;;24.98;13.73;;;17.20;67.60;;;;;;5043789;28;20120;-57
2022/03/29 09:17:44;;;;;;;20.83;13.68;;;17.30;66.80;;;;;;5043531;28;20032;-57
2022/03/29 09:20:21;;;;;;;23.33;14.57;;;17.40;65.60;;;;;;5043420;28;20027;-60
2022/03/29 09:22:48;;;;;;;22.75;14.05;;;17.40;61.50;;;;;;5043080;28;20419;-58
2022/03/29 09:25:22;;;;;;;34.95;17.90;;;17.60;62.40;;;;;;5046283;28;20404;-56
2022/03/29 09:28:06;;;;;;;22.92;13.43;;;17.30;60.40;;;;;;5053434;28;20037;-59
2022/03/29 09:30:40;;;;;;;24.58;14.30;;;17.70;58.80;;;;;;5053824;28;20033;-58
2022/03/29 09:33:12;;;;;;;19.58;12.95;;;17.70;60.00;;;;;;5053526;28;20033;-59
2022/03/29 09:35:57;;;;;;;34.58;19.42;;;17.40;57.40;;;;;;5052954;28;20017;-57
2022/03/29 09:38:52;;;;;;;18.05;13.20;;;17.60;55.50;;;;;;5053170;28;20032;-58
2022/03/29 09:41:28;;;;;;;37.50;21.75;;;18.10;58.00;;;;;;5053517;28;20090;-57
2022/03/29 09:44:02;;;;;;;20.67;13.50;;;17.80;52.80;;;;;;5053814;28;20480;-57
2022/03/29 09:46:28;;;;;;;22.25;15.23;;;17.80;54.10;;;;;;5053540;28;20032;-58
2022/03/29 09:49:01;;;;;;;25.40;14.60;;;18.10;54.20;;;;;;5053108;28;20469;-58
2022/03/29 09:51:28;;;;;;;38.05;21.95;;;18.40;51.80;;;;;;5052632;28;20029;-59
2022/03/29 09:53:56;;;;;;;23.45;13.55;;;18.20;52.20;;;;;;5053110;28;20045;-56
2022/03/29 09:56:29;;;;;;;24.02;14.25;;;18.80;53.50;;;;;;5053017;28;20017;-57
2022/03/29 09:59:14;;;;;;;19.48;13.80;;;19.00;48.90;;;;;;5053031;28;20021;-58
2022/03/29 10:01:51;;;;;;;23.15;13.55;;;18.80;51.20;;;;;;5052178;28;20047;-58
2022/03/29 10:04:18;;;;;;;19.85;13.43;;;18.40;49.00;;;;;;5052986;28;20017;-58
2022/03/29 10:06:49;;;;;;;31.90;14.85;;;18.50;47.90;;;;;;5052743;28;20035;-60
2022/03/29 10:09:32;;;;;;;26.25;16.92;;;18.90;47.90;;;;;;5053053;28;20111;-59
2022/03/29 10:12:04;;;;;;;30.40;13.70;;;18.80;48.00;;;;;;5053001;28;20048;-59
2022/03/29 10:14:38;;;;;;;33.40;18.23;;;19.50;44.70;;;;;;5053064;28;20052;-59
2022/03/29 10:17:05;;;;;;;21.98;13.68;;;19.20;43.70;;;;;;5051741;28;20033;-59
2022/03/29 10:19:30;;;;;;;26.13;14.57;;;19.70;44.50;;;;;;5053149;28;20131;-59
2022/03/29 10:21:58;;;;;;;30.98;14.15;;;19.10;43.10;;;;;;5052738;28;20556;-58
2022/03/29 10:24:24;;;;;;;31.90;18.58;;;19.60;44.90;;;;;;5052930;28;20033;-57
2022/03/29 10:26:52;;;;;;;29.35;16.17;;;19.60;43.20;;;;;;5052577;28;20033;-57
2022/03/29 10:29:19;;;;;;;27.77;15.52;;;19.30;40.90;;;;;;5052861;28;20083;-58
2022/03/29 10:31:56;;;;;;;26.13;16.23;;;19.40;40.30;;;;;;5052662;28;20028;-57
2022/03/29 10:34:26;;;;;;;31.35;15.30;;;19.40;42.40;;;;;;5052639;28;20421;-58
2022/03/29 10:37:13;;;;;;;25.58;15.63;;;20.00;41.10;;;;;;5052532;28;20082;-58
2022/03/29 10:39:47;;;;;;;28.02;16.33;;;20.00;40.80;;;;;;5052937;28;20039;-58
2022/03/29 10:42:28;;;;;;;21.40;13.90;;;20.20;39.20;;;;;;5052741;28;20411;-59
2022/03/29 10:45:22;;;;;;;26.15;15.38;;;20.60;40.90;;;;;;5052284;28;20025;-57
2022/03/29 10:47:58;;;;;;;25.75;13.85;;;20.50;40.60;;;;;;5051127;28;20033;-58
2022/03/29 10:50:50;;;;;;;26.30;15.82;;;20.20;39.90;;;;;;5052335;28;20131;-59
2022/03/29 10:53:28;;;;;;;26.70;14.57;;;19.90;38.70;;;;;;5048887;28;20486;-56
2022/03/29 10:56:13;;;;;;;24.50;13.68;;;20.10;39.60;;;;;;5031391;28;20219;-58
2022/03/29 10:59:04;;;;;;;28.83;13.85;;;20.30;39.20;;;;;;5034240;28;20028;-59
2022/03/29 11:01:31;;;;;;;22.08;14.00;;;20.00;39.70;;;;;;5033172;28;20528;-60
2022/03/29 11:04:12;;;;;;;24.73;15.23;;;19.80;39.10;;;;;;5035597;28;20552;-59
2022/03/29 11:07:11;;;;;;;22.00;14.70;;;20.50;40.80;;;;;;5036114;28;20037;-59
2022/03/29 11:09:38;;;;;;;19.85;13.65;;;21.40;37.50;;;;;;5036855;28;20033;-59
2022/03/29 11:12:04;;;;;;;25.65;14.05;;;21.40;37.30;;;;;;5037988;28;20036;-60
2022/03/29 11:14:33;;;;;;;24.45;13.70;;;22.10;35.40;;;;;;5040452;28;20053;-59
2022/03/29 11:17:14;;;;;;;26.42;14.35;;;22.50;35.90;;;;;;5041493;28;20048;-59
2022/03/29 11:19:53;;;;;;;19.85;14.38;;;23.20;34.30;;;;;;5041416;28;20021;-58
2022/03/29 11:22:39;;;;;;;25.92;16.42;;;23.50;33.70;;;;;;5041155;28;20056;-58
2022/03/29 11:25:09;;;;;;;24.30;13.85;;;22.90;35.00;;;;;;5039039;28;20411;-58
2022/03/29 11:27:36;;;;;;;27.20;14.20;;;23.20;33.70;;;;;;5039787;28;20393;-59
2022/03/29 11:30:08;;;;;;;25.35;14.57;;;23.80;35.00;;;;;;5040147;28;20020;-60
2022/03/29 11:32:34;;;;;;;22.13;14.18;;;23.50;32.30;;;;;;5041068;28;20164;-60
2022/03/29 11:35:04;;;;;;;19.40;12.30;;;23.40;32.80;;;;;;5040385;28;22211;-59
2022/03/29 11:37:43;;;;;;;22.40;14.13;;;24.30;33.20;;;;;;5040980;28;20036;-60
2022/03/29 11:40:14;;;;;;;19.20;13.80;;;24.00;29.80;;;;;;5041063;28;20074;-59
2022/03/29 11:42:46;;;;;;;18.67;13.43;;;23.80;30.20;;;;;;5041173;28;20376;-60
2022/03/29 11:45:13;;;;;;;20.30;14.05;;;25.30;29.80;;;;;;5040503;28;20033;-58
2022/03/29 11:47:40;;;;;;;25.50;13.80;;;24.60;29.60;;;;;;5040676;28;20059;-57
2022/03/29 11:50:06;;;;;;;21.50;14.07;;;24.40;30.00;;;;;;5040140;28;20028;-57
2022/03/29 11:52:34;;;;;;;21.92;13.15;;;24.50;30.00;;;;;;5041046;28;20037;-57
2022/03/29 11:54:59;;;;;;;21.88;14.43;;;24.10;30.20;;;;;;5040636;28;20029;-56
2022/03/29 11:57:26;;;;;;;21.15;14.35;;;23.20;30.80;;;;;;5040341;28;20150;-57
2022/03/29 11:59:54;;;;;;;20.05;14.10;;;22.80;31.50;;;;;;5045206;28;20544;-56
2022/03/29 12:02:22;;;;;;;26.50;15.02;;;22.30;31.90;;;;;;5051197;28;20373;-57
2022/03/29 12:04:48;;;;;;;32.30;16.75;;;21.70;31.20;;;;;;5050621;28;20048;-57
2022/03/29 12:07:15;;;;;;;31.98;16.08;;;22.00;31.30;;;;;;5050840;28;20025;-57
2022/03/29 12:09:47;;;;;;;20.25;13.75;;;22.00;31.70;;;;;;5051071;28;20033;-56
2022/03/29 12:12:14;;;;;;;27.15;14.52;;;22.90;31.40;;;;;;5051081;28;20026;-57
2022/03/29 12:14:41;;;;;;;23.05;14.85;;;23.50;30.80;;;;;;5050643;28;20045;-56
2022/03/29 12:17:08;;;;;;;27.27;15.15;;;23.00;32.00;;;;;;5051334;28;20047;-57
2022/03/29 12:19:36;;;;;;;34.60;16.60;;;23.20;32.30;;;;;;5051168;28;20028;-57
2022/03/29 12:22:07;;;;;;;22.25;14.07;;;23.50;30.50;;;;;;5050975;28;20028;-57
2022/03/29 12:24:38;;;;;;;20.60;13.60;;;23.50;31.80;;;;;;5054990;28;20031;-57
2022/03/29 12:27:12;;;;;;;22.48;14.73;;;23.50;31.20;;;;;;5054800;28;20048;-57
2022/03/29 12:29:46;;;;;;;31.95;16.60;;;22.80;32.00;;;;;;5054636;28;20044;-57
2022/03/29 12:32:13;;;;;;;23.05;15.80;;;22.60;31.90;;;;;;5055035;28;20040;-57
2022/03/29 12:34:39;;;;;;;25.98;15.07;;;21.80;32.80;;;;;;5055012;28;20040;-56
2022/03/29 12:37:12;;;;;;;25.80;14.57;;;22.70;33.70;;;;;;5054833;28;20021;-57
2022/03/29 12:39:41;;;;;;;21.60;14.95;;;22.80;33.50;;;;;;5054955;28;20357;-57
2022/03/29 12:42:17;;;;;;;28.13;13.63;;;23.10;32.20;;;;;;5053419;28;20685;-57
2022/03/29 12:44:51;;;;;;;22.33;14.95;;;23.60;31.80;;;;;;5055016;28;20116;-57
2022/03/29 12:47:17;;;;;;;25.45;14.68;;;24.60;30.20;;;;;;5054798;28;20025;-57
2022/03/29 12:49:45;;;;;;;28.00;15.40;;;24.00;31.30;;;;;;5053366;28;20025;-57